MET'MAP v2.0
soon released !

Expected late october,
this new version will be
more efficient, smarter,
and hosted on a brand new
server x3 powerfull...
...and still free !


Not compatible ?
Try the mobile version !

LOG IN : | Subscribe | Disclaimer | Who is Orbifly ? |
ICAO code :

TAF - LZKZ Kosice - 27 May 2020 18:09 UTC - Data Source NOAA   


- Airport Elevation : 755 ft
- IATA code : KSC
- No reported NOTAMs.


LZKZ - Kosice

Latest METAR recorded : 2015/08/11 08:00 LZKZ 110800Z 07006KT 030V110 CAVOK 29/17 Q1015 NOSIG
TAF TAF LZKZ
Valid from the 27 at 12:00 until the 28 at 12:00 UTC


271100Z 2712/2812 01014KT 9999 FEW045 SCT070
TEMPO 2712/2720 02015G30KT -SHRA FEW040TCU BKN050
PROB30
TEMPO 2712/2715 5000 TSRA BKN030 SCT040CB
BECMG 2722/2800 CAVOK
TEMPO 2808/2812 01015G25KT 9999 -SHRA SCT040TCU

Source NOAA


MET'MAP, your aeronautical weather chart ! - Copyright ORBIFLY December 2007

Programming & Development : Alexandra Zaïnal
Co-Developer : Marc-Olivier Méhu
Technical & hardware support : Manuel Goepfert
Concept & Financing : Baudouin d'Aumeries